Allen, South Dakota
Current Conditions -  °F | °C
As of 5:52 AM on Tuesday 21 Oct 2014 (Local Time) from KIEN Reporting Station
Clear Clear  
Wind Chill: 55°   Ceiling: Unl
Heat Index: 55°   Visibility: 10mi
Dew Point: 42°   Wind: 12mph
Humidity: 62%   Direction: 210°SSW
Pressure: 29.91"   Gusts: NA
Location:  43.28°N, 101.93°W
Report Text: KIEN 211152Z AUTO 21010KT 10SM CLR 13/06 A2991 RMK AO2 WSHFT 1116 SLP106 T01280056 10167 20128 56004 PWINO $
Loading
Personal Weather Stations






























Interactive Weather Map
Tropical Storm Tracking
New forecast layout! Learn more

10-Day Weather Forecast

Advertisements
Track Severe Weather on mobile